createdAt,value
2023-05-12T00:03:31.401Z,6.43
2023-05-12T00:07:34.817Z,5.77
2023-05-12T00:11:41.846Z,6.20
2023-05-12T00:15:45.141Z,5.20
2023-05-12T00:19:48.776Z,4.80
2023-05-12T00:23:52.242Z,5.37
2023-05-12T00:27:57.104Z,4.43
2023-05-12T00:32:00.533Z,3.80
2023-05-12T00:36:04.408Z,4.10
2023-05-12T00:40:09.482Z,3.87
2023-05-12T00:44:14.706Z,4.90
2023-05-12T00:48:18.344Z,3.73
2023-05-12T00:52:22.098Z,4.53
2023-05-12T00:56:26.503Z,4.63
2023-05-12T01:00:31.406Z,4.30
2023-05-12T01:04:35.365Z,4.20
2023-05-12T01:08:42.768Z,4.30
2023-05-12T01:12:46.685Z,4.03
2023-05-12T01:16:54.390Z,4.57
2023-05-12T01:20:58.358Z,4.43
2023-05-12T01:25:04.996Z,4.10
2023-05-12T01:29:10.609Z,4.43
2023-05-12T01:33:14.349Z,4.13
2023-05-12T01:37:18.169Z,4.83
2023-05-12T01:41:22.163Z,4.80
2023-05-12T01:45:26.875Z,4.93
2023-05-12T01:49:30.542Z,4.87
2023-05-12T01:53:34.013Z,5.63
2023-05-12T01:57:37.549Z,7.03
2023-05-12T02:01:42.792Z,6.80
2023-05-12T02:05:47.738Z,6.60
2023-05-12T02:09:51.408Z,7.97
2023-05-12T02:13:55.605Z,7.80
2023-05-12T02:18:03.830Z,7.47
2023-05-12T02:22:07.192Z,8.37
2023-05-12T02:26:11.618Z,7.50
2023-05-12T02:30:15.799Z,6.27
2023-05-12T02:34:22.616Z,7.97
2023-05-12T02:38:26.713Z,7.57
2023-05-12T02:42:35.686Z,7.83
2023-05-12T02:46:39.348Z,7.03
2023-05-12T02:50:51.174Z,7.87
2023-05-12T02:54:54.559Z,8.50
2023-05-12T02:58:58.219Z,8.63
2023-05-12T03:03:01.803Z,7.93
2023-05-12T03:07:07.240Z,7.20
2023-05-12T03:11:11.332Z,7.80
2023-05-12T03:15:15.306Z,7.53
2023-05-12T03:19:22.055Z,7.67
2023-05-12T03:23:28.004Z,6.83
2023-05-12T03:27:33.262Z,7.03
2023-05-12T03:31:37.124Z,7.27
2023-05-12T03:35:41.598Z,7.20
2023-05-12T03:39:46.435Z,7.57
2023-05-12T03:43:51.309Z,6.53
2023-05-12T03:47:54.644Z,7.30
2023-05-12T03:51:58.591Z,8.17
2023-05-12T03:56:07.620Z,7.97
2023-05-12T04:00:12.179Z,8.30
2023-05-12T04:04:22.678Z,8.20
2023-05-12T04:08:31.503Z,6.60
2023-05-12T04:12:36.535Z,7.40
2023-05-12T04:16:40.956Z,6.97
2023-05-12T04:20:44.379Z,7.03
2023-05-12T04:24:49.431Z,6.60
2023-05-12T04:28:54.698Z,8.70
2023-05-12T04:32:59.125Z,6.27
2023-05-12T04:37:02.865Z,6.27
2023-05-12T04:41:07.147Z,5.73
2023-05-12T04:45:13.375Z,6.00
2023-05-12T04:49:17.673Z,5.57
2023-05-12T04:53:21.083Z,6.13
2023-05-12T04:57:26.844Z,6.40
2023-05-12T05:01:32.927Z,5.50
2023-05-12T05:05:36.515Z,6.27
2023-05-12T05:09:39.985Z,5.37
2023-05-12T05:13:43.658Z,4.83
2023-05-12T05:17:49.831Z,4.20
2023-05-12T05:21:54.802Z,4.50
2023-05-12T05:25:58.140Z,3.80
2023-05-12T05:30:02.183Z,4.57
2023-05-12T05:34:08.194Z,4.70
2023-05-12T05:38:13.214Z,4.47
2023-05-12T05:42:16.791Z,3.80
2023-05-12T05:46:20.497Z,2.30
2023-05-12T05:50:26.540Z,3.70
2023-05-12T05:54:30.302Z,3.57
2023-05-12T05:58:35.431Z,4.23
2023-05-12T06:02:40.887Z,2.57
2023-05-12T06:06:47.320Z,3.50
2023-05-12T06:10:50.897Z,4.37
2023-05-12T06:14:55.601Z,3.43
2023-05-12T06:18:59.012Z,3.73
2023-05-12T06:23:05.701Z,2.27
2023-05-12T06:27:09.003Z,2.90
2023-05-12T06:31:12.723Z,3.17
2023-05-12T06:35:16.191Z,2.67
2023-05-12T06:39:22.182Z,2.70
2023-05-12T06:43:25.805Z,2.80
2023-05-12T06:47:31.683Z,1.20
2023-05-12T06:51:35.467Z,1.90
2023-05-12T06:55:43.338Z,2.17
2023-05-12T06:59:46.647Z,2.07
2023-05-12T07:03:50.030Z,2.33
2023-05-12T07:07:54.561Z,2.23
2023-05-12T07:12:00.896Z,1.83
2023-05-12T07:16:29.962Z,2.60
2023-05-12T07:20:33.447Z,2.57
2023-05-12T07:24:38.589Z,1.83
2023-05-12T07:28:43.572Z,2.90
2023-05-12T07:32:49.293Z,2.87
2023-05-12T07:36:52.920Z,1.90
2023-05-12T07:40:56.985Z,1.97
2023-05-12T07:45:01.745Z,2.33
2023-05-12T07:49:05.369Z,2.50
2023-05-12T07:53:08.748Z,2.40
2023-05-12T07:57:12.281Z,2.03
2023-05-12T08:01:17.632Z,1.67
2023-05-12T08:05:21.656Z,2.10
2023-05-12T08:09:25.158Z,0.80
2023-05-12T08:13:28.452Z,2.20
2023-05-12T08:17:33.330Z,1.43
2023-05-12T08:21:36.586Z,2.37
2023-05-12T08:25:48.470Z,2.53
2023-05-12T08:29:51.780Z,2.17
2023-05-12T08:34:09.066Z,1.57
2023-05-12T08:38:13.772Z,2.80
2023-05-12T08:42:29.601Z,2.93
2023-05-12T08:46:33.455Z,2.27
2023-05-12T08:50:45.888Z,2.63
2023-05-12T08:54:55.959Z,2.40
2023-05-12T08:59:01.081Z,2.30
2023-05-12T09:03:07.394Z,1.70
2023-05-12T09:07:12.804Z,1.83
2023-05-12T09:11:17.614Z,2.50
2023-05-12T09:15:28.713Z,1.60
2023-05-12T09:19:32.763Z,2.60
2023-05-12T09:23:39.753Z,2.20
2023-05-12T09:27:43.035Z,2.43
2023-05-12T09:31:53.637Z,1.60
2023-05-12T09:35:56.886Z,1.43
2023-05-12T09:40:06.424Z,2.53
2023-05-12T09:44:11.034Z,2.37
2023-05-12T09:48:15.538Z,2.20
2023-05-12T09:52:22.733Z,2.33
2023-05-12T09:56:31.579Z,2.20
2023-05-12T10:00:52.392Z,1.43
2023-05-12T10:05:04.657Z,2.13
2023-05-12T10:09:20.282Z,2.23
2023-05-12T10:13:26.410Z,2.50
2023-05-12T10:17:33.224Z,1.80
2023-05-12T10:21:39.725Z,3.10
2023-05-12T10:25:46.107Z,1.00
2023-05-12T10:29:53.558Z,3.87
2023-05-12T10:33:58.892Z,3.30
2023-05-12T10:38:10.064Z,3.57
2023-05-12T10:42:13.318Z,3.63
2023-05-12T10:46:24.412Z,3.50
2023-05-12T10:50:29.234Z,2.90
2023-05-12T10:54:40.923Z,2.90
2023-05-12T10:59:09.326Z,3.17
2023-05-12T11:03:17.352Z,3.37
2023-05-12T11:07:24.684Z,2.23
2023-05-12T11:11:30.105Z,2.70
2023-05-12T11:15:33.640Z,4.37
2023-05-12T11:19:40.649Z,4.87
2023-05-12T11:23:43.877Z,4.23
2023-05-12T11:27:51.774Z,3.20
2023-05-12T11:31:55.724Z,3.03
2023-05-12T11:36:06.071Z,3.40
2023-05-12T11:40:19.446Z,3.53
2023-05-12T11:44:24.191Z,4.67
2023-05-12T11:48:35.120Z,3.30
2023-05-12T11:52:40.597Z,2.90
2023-05-12T11:56:49.776Z,3.03
2023-05-12T12:00:53.248Z,2.50
2023-05-12T12:04:58.700Z,2.40
2023-05-12T12:09:03.543Z,2.70
2023-05-12T12:13:07.256Z,2.67
2023-05-12T12:17:10.538Z,2.63
2023-05-12T12:21:13.949Z,3.30
2023-05-12T12:25:19.886Z,4.07
2023-05-12T12:29:26.304Z,3.07
2023-05-12T12:33:30.587Z,3.57
2023-05-12T12:37:35.607Z,3.63
2023-05-12T12:41:41.816Z,3.53
2023-05-12T12:45:45.495Z,2.70
2023-05-12T12:49:48.853Z,1.90
2023-05-12T12:53:52.365Z,3.13
2023-05-12T12:57:57.140Z,2.53
2023-05-12T13:02:03.436Z,2.60
2023-05-12T13:06:14.150Z,1.90
2023-05-12T13:10:17.866Z,2.43
2023-05-12T13:14:23.091Z,2.23
2023-05-12T13:18:26.480Z,2.07
2023-05-12T13:22:29.874Z,1.93
2023-05-12T13:26:33.337Z,2.27
2023-05-12T13:30:40.194Z,1.20
2023-05-12T13:34:43.628Z,2.30
2023-05-12T13:38:48.069Z,2.27
2023-05-12T13:42:51.310Z,3.13
2023-05-12T13:46:57.281Z,2.73
2023-05-12T13:51:00.589Z,2.50
2023-05-12T13:55:05.304Z,1.23
2023-05-12T13:59:09.838Z,2.10
2023-05-12T14:03:14.840Z,1.67
2023-05-12T14:07:21.991Z,1.97
2023-05-12T14:11:25.339Z,2.10
2023-05-12T14:15:44.284Z,1.43
2023-05-12T14:19:52.342Z,1.33
2023-05-12T14:24:20.544Z,1.33
2023-05-12T14:28:24.261Z,1.23
2023-05-12T14:32:28.591Z,1.03
2023-05-12T14:36:33.379Z,1.50
2023-05-12T14:40:38.507Z,1.20
2023-05-12T14:44:43.617Z,2.00
2023-05-12T14:48:49.165Z,1.70
2023-05-12T14:52:53.883Z,2.27
2023-05-12T14:57:00.701Z,2.67
2023-05-12T15:01:04.411Z,3.03
2023-05-12T15:05:09.723Z,3.23
2023-05-12T15:09:14.440Z,2.60
2023-05-12T15:13:21.441Z,2.50
2023-05-12T15:17:25.083Z,2.40
2023-05-12T15:21:29.526Z,2.50
2023-05-12T15:25:34.343Z,3.50
2023-05-12T15:29:39.893Z,3.67
2023-05-12T15:33:43.221Z,3.53
2023-05-12T15:37:46.782Z,3.57
2023-05-12T15:41:51.606Z,4.03
2023-05-12T15:45:55.139Z,3.23
2023-05-12T15:49:58.344Z,3.40
2023-05-12T15:54:01.978Z,3.03
2023-05-12T15:58:08.400Z,2.60
2023-05-12T16:02:12.159Z,2.40
2023-05-12T16:06:15.711Z,2.90
2023-05-12T16:10:19.694Z,2.53
2023-05-12T16:14:25.562Z,2.43
2023-05-12T16:18:31.993Z,2.40
2023-05-12T16:22:35.450Z,1.73
2023-05-12T16:26:40.986Z,2.10
2023-05-12T16:30:46.165Z,2.00
2023-05-12T16:34:49.836Z,1.90
2023-05-12T16:38:53.573Z,2.07
2023-05-12T16:42:57.311Z,2.10
2023-05-12T16:47:02.124Z,1.83
2023-05-12T16:51:08.901Z,2.37
2023-05-12T16:55:12.465Z,2.47
2023-05-12T16:59:17.221Z,2.27
2023-05-12T17:03:23.449Z,2.37
2023-05-12T17:07:27.164Z,2.60
2023-05-12T17:11:31.753Z,2.50
2023-05-12T17:15:35.135Z,2.17
2023-05-12T17:19:42.042Z,2.40
2023-05-12T17:23:45.875Z,2.23
2023-05-12T17:27:52.351Z,2.50
2023-05-12T17:31:55.741Z,2.03
2023-05-12T17:36:12.234Z,2.60
2023-05-12T17:40:18.009Z,2.23
2023-05-12T17:44:23.634Z,2.13
2023-05-12T17:48:27.000Z,2.90
2023-05-12T17:52:32.945Z,2.30
2023-05-12T17:56:36.714Z,3.03
2023-05-12T18:00:40.173Z,3.23
2023-05-12T18:04:43.748Z,3.30
2023-05-12T18:08:48.725Z,3.17
2023-05-12T18:12:53.671Z,2.70
2023-05-12T18:17:07.770Z,2.30
2023-05-12T18:21:12.598Z,3.50
2023-05-12T18:25:17.497Z,3.10
2023-05-12T18:29:20.876Z,3.03
2023-05-12T18:33:24.348Z,3.77
2023-05-12T18:37:28.857Z,3.83
2023-05-12T18:41:34.778Z,4.00
2023-05-12T18:45:38.315Z,3.80
2023-05-12T18:49:41.938Z,4.17
2023-05-12T18:53:45.275Z,4.97
2023-05-12T18:57:50.211Z,4.40
2023-05-12T19:01:53.667Z,5.57
2023-05-12T19:05:57.273Z,4.70
2023-05-12T19:10:01.452Z,4.77
2023-05-12T19:14:07.086Z,4.13
2023-05-12T19:18:11.432Z,4.60
2023-05-12T19:22:14.666Z,5.20
2023-05-12T19:26:18.197Z,4.80
2023-05-12T19:30:25.393Z,4.77
2023-05-12T19:34:31.714Z,4.23
2023-05-12T19:38:35.199Z,4.20
2023-05-12T19:42:46.259Z,5.80
2023-05-12T19:46:53.386Z,6.23
2023-05-12T19:50:56.803Z,7.23
2023-05-12T19:55:00.626Z,6.80
2023-05-12T19:59:04.780Z,7.20
2023-05-12T20:03:11.904Z,5.90
2023-05-12T20:07:15.384Z,8.37
2023-05-12T20:11:18.844Z,6.57
2023-05-12T20:15:22.834Z,7.33
2023-05-12T20:19:39.204Z,7.30
2023-05-12T20:23:45.720Z,8.33
2023-05-12T20:27:49.430Z,7.93
2023-05-12T20:31:53.523Z,9.90
2023-05-12T20:36:00.452Z,10.40
2023-05-12T20:40:05.454Z,8.37
2023-05-12T20:44:09.097Z,9.13
2023-05-12T20:48:12.459Z,7.53
2023-05-12T20:52:17.219Z,8.87
2023-05-12T20:56:22.765Z,9.90
2023-05-12T21:00:26.212Z,9.77
2023-05-12T21:04:29.575Z,9.77
2023-05-12T21:08:34.426Z,11.37
2023-05-12T21:12:37.728Z,11.47
2023-05-12T21:16:41.117Z,10.10
2023-05-12T21:20:44.454Z,9.33
2023-05-12T21:24:51.063Z,8.00
2023-05-12T21:28:54.966Z,9.53
2023-05-12T21:32:59.422Z,36.27
2023-05-12T21:37:02.760Z,15.17
2023-05-12T21:41:07.674Z,63.10
2023-05-12T21:45:11.394Z,46.70
2023-05-12T21:49:14.852Z,55.10
2023-05-12T21:53:18.163Z,26.07
2023-05-12T21:57:23.088Z,10.97
2023-05-12T22:01:26.510Z,10.17
2023-05-12T22:05:29.945Z,12.93
2023-05-12T22:09:34.468Z,13.03
2023-05-12T22:13:39.212Z,16.60
2023-05-12T22:17:46.102Z,13.13
2023-05-12T22:21:49.982Z,15.27
2023-05-12T22:25:54.623Z,13.90
2023-05-12T22:29:59.323Z,41.47
2023-05-12T22:34:02.616Z,68.23
2023-05-12T22:38:05.959Z,71.63
2023-05-12T22:42:34.292Z,60.60
2023-05-12T22:46:38.969Z,30.43
2023-05-12T22:50:42.306Z,15.93
2023-05-12T22:54:45.581Z,39.50
2023-05-12T22:58:48.894Z,47.67
2023-05-12T23:02:55.003Z,82.57
2023-05-12T23:06:58.340Z,57.87
2023-05-12T23:11:01.922Z,43.53
2023-05-12T23:15:05.446Z,49.03
2023-05-12T23:19:10.160Z,92.00
2023-05-12T23:23:13.409Z,43.50
2023-05-12T23:27:17.803Z,53.23
2023-05-12T23:31:21.122Z,57.00
2023-05-12T23:35:27.365Z,76.47
2023-05-12T23:39:30.759Z,52.50
2023-05-12T23:43:34.134Z,76.10
2023-05-12T23:47:37.792Z,67.63
2023-05-12T23:51:42.665Z,18.27
2023-05-12T23:55:45.945Z,26.93
2023-05-12T23:59:50.299Z,16.40
